createdAt,value
2019-05-18T00:02:18.536Z,18.41
2019-05-18T00:04:45.121Z,18.40
2019-05-18T00:07:13.992Z,18.37
2019-05-18T00:09:40.574Z,18.31
2019-05-18T00:12:07.161Z,18.31
2019-05-18T00:14:35.892Z,18.16
2019-05-18T00:17:02.755Z,18.07
2019-05-18T00:19:29.617Z,17.93
2019-05-18T00:21:58.522Z,17.80
2019-05-18T00:24:25.212Z,17.68
2019-05-18T00:26:52.111Z,17.65
2019-05-18T00:29:22.126Z,17.53
2019-05-18T00:31:48.708Z,17.38
2019-05-18T00:34:15.290Z,17.39
2019-05-18T00:36:44.090Z,17.59
2019-05-18T00:39:10.672Z,17.51
2019-05-18T00:41:37.289Z,17.35
2019-05-18T00:44:06.320Z,17.27
2019-05-18T00:46:32.902Z,17.21
2019-05-18T00:48:59.491Z,17.02
2019-05-18T00:51:28.612Z,16.98
2019-05-18T00:53:55.220Z,16.97
2019-05-18T00:56:22.151Z,16.87
2019-05-18T00:58:50.513Z,16.79
2019-05-18T01:01:17.100Z,16.70
2019-05-18T01:03:44.010Z,16.86
2019-05-18T01:06:14.019Z,16.85
2019-05-18T01:08:40.606Z,17.03
2019-05-18T01:11:07.474Z,16.88
2019-05-18T01:13:36.300Z,16.72
2019-05-18T01:16:03.148Z,16.57
2019-05-18T01:18:30.062Z,16.45
2019-05-18T01:20:58.483Z,16.39
2019-05-18T01:23:25.347Z,16.37
2019-05-18T01:25:51.981Z,16.51
2019-05-18T01:28:21.504Z,16.50
2019-05-18T01:30:48.393Z,16.40
2019-05-18T01:33:15.499Z,16.27
2019-05-18T01:35:43.677Z,16.22
2019-05-18T01:38:12.043Z,16.07
2019-05-18T01:40:38.656Z,16.06
2019-05-18T01:43:07.457Z,16.05
2019-05-18T01:45:34.055Z,16.04
2019-05-18T01:48:12.784Z,16.01
2019-05-18T01:50:32.200Z,15.96
2019-05-18T01:52:58.885Z,15.82
2019-05-18T01:55:25.495Z,15.95
2019-05-18T01:57:54.740Z,16.11
2019-05-18T02:00:22.457Z,16.13
2019-05-18T02:02:49.043Z,16.10
2019-05-18T02:05:18.002Z,15.83
2019-05-18T02:07:44.861Z,15.65
2019-05-18T02:10:11.443Z,15.60
2019-05-18T02:12:40.346Z,15.68
2019-05-18T02:15:06.930Z,15.70
2019-05-18T02:17:33.544Z,15.59
2019-05-18T02:20:02.174Z,15.35
2019-05-18T02:22:28.761Z,15.34
2019-05-18T02:24:55.597Z,15.43
2019-05-18T02:27:24.491Z,15.37
2019-05-18T02:29:51.292Z,15.30
2019-05-18T02:32:18.156Z,15.22
2019-05-18T02:34:46.836Z,15.11
2019-05-18T02:37:13.494Z,15.13
2019-05-18T02:39:40.077Z,15.11
2019-05-18T02:42:08.859Z,15.05
2019-05-18T02:44:35.466Z,15.05
2019-05-18T02:47:02.054Z,14.91
2019-05-18T02:49:31.921Z,14.97
2019-05-18T02:51:58.820Z,14.99
2019-05-18T02:54:25.421Z,14.73
2019-05-18T02:56:53.750Z,14.64
2019-05-18T02:59:20.332Z,14.64
2019-05-18T03:01:46.938Z,14.66
2019-05-18T03:04:16.055Z,14.63
2019-05-18T03:06:42.847Z,14.64
2019-05-18T03:09:09.708Z,14.66
2019-05-18T03:11:42.943Z,14.65
2019-05-18T03:14:09.534Z,14.69
2019-05-18T03:16:36.347Z,14.70
2019-05-18T03:19:08.697Z,14.62
2019-05-18T03:21:33.129Z,14.53
2019-05-18T03:23:59.725Z,14.49
2019-05-18T03:26:28.306Z,14.57
2019-05-18T03:28:55.165Z,14.70
2019-05-18T03:31:22.197Z,14.78
2019-05-18T03:33:52.141Z,14.64
2019-05-18T03:36:18.725Z,14.53
2019-05-18T03:38:45.598Z,14.55
2019-05-18T03:41:14.450Z,14.55
2019-05-18T03:43:41.292Z,14.70
2019-05-18T03:46:07.891Z,14.71
2019-05-18T03:48:37.334Z,14.69
2019-05-18T03:51:03.906Z,14.59
2019-05-18T03:53:30.689Z,14.75
2019-05-18T03:55:59.898Z,15.00
2019-05-18T03:58:26.653Z,15.70
2019-05-18T04:00:53.547Z,16.15
2019-05-18T04:03:22.074Z,16.21
2019-05-18T04:05:48.844Z,15.98
2019-05-18T04:08:15.433Z,15.90
2019-05-18T04:10:44.235Z,15.86
2019-05-18T04:13:11.191Z,15.84
2019-05-18T04:15:37.785Z,16.09
2019-05-18T04:18:06.241Z,16.24
2019-05-18T04:20:32.836Z,16.26
2019-05-18T04:22:59.419Z,16.30
2019-05-18T04:25:28.663Z,16.44
2019-05-18T04:27:55.335Z,16.41
2019-05-18T04:30:22.512Z,16.39
2019-05-18T04:32:51.006Z,16.49
2019-05-18T04:35:17.851Z,16.53
2019-05-18T04:37:44.715Z,16.74
2019-05-18T04:42:46.527Z,16.93
2019-05-18T04:45:13.141Z,16.77
2019-05-18T04:47:40.005Z,16.58
2019-05-18T04:50:08.358Z,16.60
2019-05-18T04:52:34.952Z,16.67
2019-05-18T04:55:01.863Z,17.06
2019-05-18T04:57:32.645Z,17.35
2019-05-18T04:59:59.218Z,17.51
2019-05-18T05:02:25.831Z,17.74
2019-05-18T05:04:56.684Z,18.19
2019-05-18T05:07:22.617Z,18.48
2019-05-18T05:09:49.206Z,18.40
2019-05-18T05:12:17.905Z,18.41
2019-05-18T05:14:45.664Z,18.39
2019-05-18T05:17:12.315Z,18.41
2019-05-18T05:19:41.131Z,18.37
2019-05-18T05:22:07.706Z,18.63
2019-05-18T05:24:34.578Z,18.36
2019-05-18T05:27:03.505Z,18.31
2019-05-18T05:29:30.104Z,18.32
2019-05-18T05:31:57.706Z,18.21
2019-05-18T05:34:26.507Z,18.30
2019-05-18T05:36:57.180Z,18.18
2019-05-18T05:39:25.535Z,18.33
2019-05-18T05:41:54.199Z,18.36
2019-05-18T05:44:21.866Z,18.47
2019-05-18T05:46:48.462Z,18.70
2019-05-18T05:49:20.353Z,18.66
2019-05-18T05:51:46.952Z,18.73
2019-05-18T05:54:13.823Z,18.66
2019-05-18T05:56:43.868Z,18.48
2019-05-18T05:59:11.596Z,18.41
2019-05-18T06:01:39.217Z,18.69
2019-05-18T06:04:07.917Z,19.13
2019-05-18T06:06:35.536Z,19.41
2019-05-18T06:09:03.285Z,19.41
2019-05-18T06:11:32.556Z,19.19
2019-05-18T06:14:00.155Z,19.51
2019-05-18T06:16:29.731Z,19.40
2019-05-18T06:18:58.502Z,19.60
2019-05-18T06:21:26.410Z,19.65
2019-05-18T06:23:54.046Z,19.87
2019-05-18T06:26:24.378Z,19.91
2019-05-18T06:28:51.018Z,19.71
2019-05-18T06:31:17.613Z,19.62
2019-05-18T06:33:47.349Z,19.67
2019-05-18T06:36:14.737Z,19.76
2019-05-18T06:38:41.381Z,19.92
2019-05-18T06:41:12.871Z,20.19
2019-05-18T06:43:39.793Z,20.00
2019-05-18T06:46:06.630Z,19.74
2019-05-18T06:48:36.135Z,19.41
2019-05-18T06:51:07.214Z,19.28
2019-05-18T06:53:31.174Z,19.31
2019-05-18T06:56:01.290Z,19.40
2019-05-18T06:58:28.158Z,19.59
2019-05-18T07:00:55.817Z,19.85
2019-05-18T07:03:25.037Z,20.09
2019-05-18T07:05:52.921Z,20.16
2019-05-18T07:08:20.528Z,20.12
2019-05-18T07:10:50.692Z,20.22
2019-05-18T07:13:20.706Z,20.05
2019-05-18T07:15:48.326Z,20.00
2019-05-18T07:18:18.276Z,20.08
2019-05-18T07:20:44.869Z,20.14
2019-05-18T07:23:11.461Z,20.39
2019-05-18T07:25:41.919Z,20.41
2019-05-18T07:28:09.551Z,20.38
2019-05-18T07:30:37.159Z,20.32
2019-05-18T07:33:07.768Z,20.03
2019-05-18T07:35:35.434Z,20.01
2019-05-18T07:38:02.783Z,20.16
2019-05-18T07:40:31.545Z,20.22
2019-05-18T07:42:59.109Z,20.30
2019-05-18T07:45:25.992Z,20.47
2019-05-18T07:47:54.918Z,20.28
2019-05-18T07:50:21.810Z,20.25
2019-05-18T07:52:48.398Z,20.28
2019-05-18T07:55:17.001Z,20.60
2019-05-18T07:57:43.799Z,20.91
2019-05-18T08:00:11.402Z,20.93
2019-05-18T08:02:41.031Z,20.80
2019-05-18T08:05:07.911Z,20.71
2019-05-18T08:07:34.807Z,20.69
2019-05-18T08:10:03.416Z,20.68
2019-05-18T08:12:30.292Z,20.88
2019-05-18T08:14:56.888Z,21.01
2019-05-18T08:17:25.886Z,21.11
2019-05-18T08:19:52.473Z,20.97
2019-05-18T08:22:19.268Z,20.73
2019-05-18T08:24:48.481Z,20.66
2019-05-18T08:27:15.303Z,20.86
2019-05-18T08:29:41.895Z,20.76
2019-05-18T08:32:10.940Z,20.66
2019-05-18T08:34:38.537Z,20.86
2019-05-18T08:37:05.429Z,20.87
2019-05-18T08:39:34.227Z,20.88
2019-05-18T08:42:00.875Z,20.93
2019-05-18T08:44:27.473Z,20.94
2019-05-18T08:47:00.511Z,20.61
2019-05-18T08:49:27.129Z,20.57
2019-05-18T08:52:07.440Z,20.75
2019-05-18T08:54:24.101Z,21.00
2019-05-18T08:56:50.989Z,20.97
2019-05-18T08:59:17.576Z,20.84
2019-05-18T09:01:47.728Z,20.88
2019-05-18T09:04:14.327Z,20.78
2019-05-18T09:06:40.932Z,20.63
2019-05-18T09:09:10.064Z,20.67
2019-05-18T09:11:36.663Z,20.73
2019-05-18T09:14:03.405Z,20.65
2019-05-18T09:16:32.371Z,20.75
2019-05-18T09:19:01.377Z,20.78
2019-05-18T09:21:28.971Z,20.87
2019-05-18T09:23:58.613Z,20.97
2019-05-18T09:26:25.308Z,20.91
2019-05-18T09:28:51.918Z,20.89
2019-05-18T09:31:21.447Z,21.13
2019-05-18T09:33:49.356Z,21.24
2019-05-18T09:36:16.594Z,21.38
2019-05-18T09:38:46.174Z,21.34
2019-05-18T09:41:12.798Z,21.37
2019-05-18T09:43:39.607Z,21.46
2019-05-18T09:46:08.578Z,21.35
2019-05-18T09:48:35.553Z,21.16
2019-05-18T09:51:02.252Z,21.09
2019-05-18T09:53:30.967Z,20.88
2019-05-18T09:55:57.727Z,20.90
2019-05-18T09:58:24.601Z,20.94
2019-05-18T10:00:53.530Z,21.06
2019-05-18T10:03:20.115Z,21.23
2019-05-18T10:05:46.713Z,21.19
2019-05-18T10:08:16.114Z,21.24
2019-05-18T10:10:42.887Z,21.10
2019-05-18T10:13:09.763Z,21.00
2019-05-18T10:15:38.558Z,20.96
2019-05-18T10:18:05.723Z,20.87
2019-05-18T10:20:32.631Z,21.02
2019-05-18T10:23:12.464Z,21.12
2019-05-18T10:25:30.171Z,20.94
2019-05-18T10:27:56.762Z,20.95
2019-05-18T10:30:25.757Z,21.13
2019-05-18T10:32:52.453Z,21.38
2019-05-18T10:35:20.078Z,21.44
2019-05-18T10:37:48.858Z,21.48
2019-05-18T10:40:15.464Z,21.66
2019-05-18T10:42:42.325Z,21.94
2019-05-18T10:45:13.228Z,21.91
2019-05-18T10:47:40.153Z,21.68
2019-05-18T10:50:06.747Z,21.17
2019-05-18T10:52:35.714Z,21.02
2019-05-18T10:57:50.063Z,21.28
2019-05-18T11:00:16.670Z,21.52
2019-05-18T11:02:43.322Z,21.38
2019-05-18T11:05:11.965Z,21.41
2019-05-18T11:07:38.840Z,21.30
2019-05-18T11:10:05.650Z,21.55
2019-05-18T11:12:34.470Z,21.57
2019-05-18T11:15:01.052Z,21.55
2019-05-18T11:17:28.018Z,21.51
2019-05-18T11:19:56.690Z,21.65
2019-05-18T11:22:23.289Z,21.97
2019-05-18T11:24:50.167Z,22.11
2019-05-18T11:27:19.298Z,22.21
2019-05-18T11:29:45.891Z,22.29
2019-05-18T11:32:12.758Z,22.02
2019-05-18T11:34:44.403Z,21.67
2019-05-18T11:37:10.997Z,21.81
2019-05-18T11:39:37.589Z,22.04
2019-05-18T11:42:06.257Z,22.06
2019-05-18T11:44:32.848Z,22.15
2019-05-18T11:46:59.462Z,22.57
2019-05-18T11:49:29.159Z,22.80
2019-05-18T11:51:55.905Z,23.03
2019-05-18T11:54:22.502Z,23.52
2019-05-18T11:56:51.198Z,24.12
2019-05-18T11:59:17.761Z,24.34
2019-05-18T12:01:44.311Z,24.42
2019-05-18T12:04:13.083Z,24.37
2019-05-18T12:06:40.024Z,24.38
2019-05-18T12:09:06.692Z,24.14
2019-05-18T12:11:35.510Z,23.82
2019-05-18T12:14:02.359Z,23.81
2019-05-18T12:16:28.986Z,23.54
2019-05-18T12:18:57.898Z,23.35
2019-05-18T12:21:24.491Z,23.67
2019-05-18T12:23:52.108Z,24.09
2019-05-18T12:26:22.003Z,24.12
2019-05-18T12:28:49.089Z,24.07
2019-05-18T12:31:16.977Z,23.94
2019-05-18T12:33:47.032Z,23.58
2019-05-18T12:36:15.565Z,23.48
2019-05-18T12:38:42.209Z,23.82
2019-05-18T12:41:11.887Z,24.20
2019-05-18T12:43:39.792Z,24.33
2019-05-18T12:46:06.753Z,24.20
2019-05-18T12:48:40.325Z,24.18
2019-05-18T12:51:10.544Z,24.17
2019-05-18T12:53:37.495Z,24.27
2019-05-18T12:56:06.650Z,24.69
2019-05-18T12:58:33.575Z,24.69
2019-05-18T13:01:00.752Z,24.49
2019-05-18T13:03:30.823Z,24.66
2019-05-18T13:05:57.693Z,25.22
2019-05-18T13:08:24.585Z,25.49
2019-05-18T13:10:53.150Z,25.67
2019-05-18T13:13:19.726Z,25.63
2019-05-18T13:15:46.260Z,26.01
2019-05-18T13:18:14.858Z,26.50
2019-05-18T13:20:41.542Z,26.78
2019-05-18T13:23:08.016Z,26.36
2019-05-18T13:25:37.674Z,25.77
2019-05-18T13:28:04.587Z,25.05
2019-05-18T13:30:31.460Z,24.52
2019-05-18T13:32:59.979Z,24.51
2019-05-18T13:35:26.887Z,24.06
2019-05-18T13:37:53.598Z,24.64
2019-05-18T13:40:25.705Z,25.20
2019-05-18T13:42:52.201Z,25.68
2019-05-18T13:45:18.745Z,25.87
2019-05-18T13:47:47.301Z,26.00
2019-05-18T13:50:13.814Z,26.33
2019-05-18T13:52:40.344Z,26.75
2019-05-18T13:55:10.786Z,27.10
2019-05-18T13:57:37.279Z,26.65
2019-05-18T14:00:03.795Z,26.02
2019-05-18T14:02:35.528Z,25.86
2019-05-18T14:05:03.055Z,25.79
2019-05-18T14:07:29.559Z,25.67
2019-05-18T14:09:59.773Z,25.90
2019-05-18T14:12:26.304Z,26.47
2019-05-18T14:14:52.794Z,27.20
2019-05-18T14:17:22.294Z,26.58
2019-05-18T14:19:49.477Z,26.01
2019-05-18T14:22:16.190Z,25.06
2019-05-18T14:27:19.201Z,23.95
2019-05-18T14:29:45.821Z,23.86
2019-05-18T14:32:13.460Z,24.08
2019-05-18T14:34:42.100Z,24.69
2019-05-18T14:37:09.045Z,25.24
2019-05-18T14:39:35.905Z,25.32
2019-05-18T14:42:07.853Z,24.90
2019-05-18T14:44:34.791Z,24.55
2019-05-18T14:47:01.685Z,24.47
2019-05-18T14:49:31.630Z,24.76
2019-05-18T14:51:58.811Z,24.78
2019-05-18T14:54:25.933Z,24.54
2019-05-18T15:01:59.039Z,25.19
2019-05-18T15:04:25.562Z,25.97
2019-05-18T15:06:52.100Z,26.27
2019-05-18T15:09:20.378Z,26.38
2019-05-18T15:11:46.894Z,26.76
2019-05-18T15:14:13.412Z,26.47
2019-05-18T15:16:41.932Z,26.58
2019-05-18T15:19:08.434Z,26.86
2019-05-18T15:21:34.940Z,27.24
2019-05-18T15:26:35.359Z,26.87
2019-05-18T15:29:01.881Z,27.23
2019-05-18T15:31:28.374Z,27.23
2019-05-18T15:33:57.868Z,27.33
2019-05-18T15:36:24.370Z,27.35
2019-05-18T15:38:50.881Z,26.93
2019-05-18T15:41:20.154Z,26.85
2019-05-18T15:43:46.769Z,26.82
2019-05-18T15:46:13.426Z,26.75
2019-05-18T15:51:15.202Z,25.98
2019-05-18T15:53:41.732Z,25.78
2019-05-18T15:56:08.232Z,25.91
2019-05-18T16:08:45.199Z,26.96
2019-05-18T16:11:11.709Z,26.90
2019-05-18T16:13:38.230Z,26.83
2019-05-18T16:18:38.760Z,26.52
2019-05-18T16:21:05.269Z,26.07
2019-05-18T16:23:31.789Z,25.87
2019-05-18T16:26:03.286Z,25.56
2019-05-18T16:28:29.783Z,25.29
2019-05-18T16:30:56.293Z,25.28
2019-05-18T16:33:26.054Z,25.37
2019-05-18T16:35:52.564Z,25.46
2019-05-18T16:38:19.080Z,25.54
2019-05-18T16:43:23.011Z,25.52
2019-05-18T16:45:50.154Z,25.18
2019-05-18T16:48:16.634Z,25.10
2019-05-18T16:53:18.235Z,25.00
2019-05-18T16:55:45.139Z,24.87
2019-05-18T16:58:12.049Z,24.77
2019-05-18T17:00:40.737Z,24.68
2019-05-18T17:03:07.618Z,24.49
2019-05-18T17:05:34.502Z,24.23
2019-05-18T17:10:36.257Z,24.36
2019-05-18T17:13:03.132Z,24.38
2019-05-18T17:15:30.330Z,24.18
2019-05-18T17:18:02.721Z,24.08
2019-05-18T17:20:29.624Z,23.86
2019-05-18T17:22:56.515Z,23.85
2019-05-18T17:25:25.651Z,23.90
2019-05-18T17:27:52.543Z,23.89
2019-05-18T17:30:19.457Z,23.75
2019-05-18T17:32:48.659Z,23.76
2019-05-18T17:35:15.332Z,23.74
2019-05-18T17:37:42.198Z,23.77
2019-05-18T17:40:12.092Z,23.85
2019-05-18T17:42:38.965Z,23.95
2019-05-18T17:45:06.156Z,23.92
2019-05-18T17:47:34.942Z,23.83
2019-05-18T17:50:02.129Z,23.81
2019-05-18T17:52:28.989Z,23.84
2019-05-18T17:55:00.721Z,23.78
2019-05-18T17:57:27.593Z,23.77
2019-05-18T17:59:54.922Z,23.78
2019-05-18T18:02:23.381Z,23.80
2019-05-18T18:04:53.975Z,23.70
2019-05-18T18:07:19.133Z,23.63
2019-05-18T18:09:51.405Z,23.61
2019-05-18T18:12:18.292Z,23.56
2019-05-18T18:14:44.876Z,23.46
2019-05-18T18:17:17.544Z,23.40
2019-05-18T18:19:43.000Z,23.41
2019-05-18T18:22:13.615Z,23.45
2019-05-18T18:24:42.849Z,23.54
2019-05-18T18:27:24.195Z,23.49
2019-05-18T18:29:38.354Z,23.39
2019-05-18T18:32:07.349Z,23.34
2019-05-18T18:34:34.227Z,23.33
2019-05-18T18:37:01.089Z,23.27
2019-05-18T18:42:02.048Z,23.24
2019-05-18T18:44:28.926Z,22.94
2019-05-18T18:46:55.545Z,22.73
2019-05-18T18:49:24.245Z,22.70
2019-05-18T18:51:50.962Z,22.70
2019-05-18T18:54:17.693Z,22.71
2019-05-18T18:59:19.651Z,22.76
2019-05-18T19:01:46.412Z,22.74
2019-05-18T19:04:15.056Z,22.70
2019-05-18T19:06:43.838Z,22.58
2019-05-18T19:09:14.845Z,22.47
2019-05-18T19:11:42.934Z,22.28
2019-05-18T19:16:44.466Z,22.58
2019-05-18T19:19:12.091Z,22.52
2019-05-18T19:26:45.589Z,22.20
2019-05-18T19:29:12.177Z,22.23
2019-05-18T19:31:38.775Z,22.07
2019-05-18T19:34:07.862Z,21.96
2019-05-18T19:36:34.718Z,21.89
2019-05-18T19:39:01.297Z,21.90
2019-05-18T19:44:05.415Z,21.76
2019-05-18T19:46:33.040Z,21.70
2019-05-18T19:48:59.648Z,21.67
2019-05-18T19:51:29.907Z,21.65
2019-05-18T19:53:56.796Z,21.60
2019-05-18T19:56:23.413Z,21.59
2019-05-18T20:01:27.457Z,21.62
2019-05-18T20:03:55.044Z,21.56
2019-05-18T20:06:22.965Z,21.45
2019-05-18T20:08:55.040Z,21.34
2019-05-18T20:11:22.921Z,21.20
2019-05-18T20:13:50.745Z,21.18
2019-05-18T20:16:19.449Z,21.25
2019-05-18T20:18:46.170Z,21.03
2019-05-18T20:21:14.056Z,20.86
2019-05-18T20:23:45.997Z,20.75
2019-05-18T20:26:16.906Z,20.76
2019-05-18T20:28:43.804Z,20.79
2019-05-18T20:31:13.560Z,20.89
2019-05-18T20:33:40.318Z,20.97
2019-05-18T20:36:07.922Z,20.85
2019-05-18T20:38:36.634Z,20.78
2019-05-18T20:41:03.377Z,20.59
2019-05-18T20:43:30.279Z,20.41
2019-05-18T20:45:58.945Z,20.28
2019-05-18T20:48:25.870Z,20.24
2019-05-18T20:50:52.480Z,20.25
2019-05-18T20:53:21.803Z,20.19
2019-05-18T20:55:48.407Z,20.20
2019-05-18T20:58:15.021Z,20.17
2019-05-18T21:00:43.440Z,20.05
2019-05-18T21:03:10.034Z,20.04
2019-05-18T21:05:36.651Z,19.99
2019-05-18T21:08:05.244Z,20.03
2019-05-18T21:10:32.104Z,19.93
2019-05-18T21:12:59.040Z,19.95
2019-05-18T21:15:29.695Z,19.87
2019-05-18T21:17:56.467Z,19.83
2019-05-18T21:20:23.079Z,19.84
2019-05-18T21:22:51.931Z,19.75
2019-05-18T21:25:18.532Z,19.67
2019-05-18T21:27:45.250Z,19.65
2019-05-18T21:30:14.076Z,19.62
2019-05-18T21:32:40.994Z,19.61
2019-05-18T21:35:07.898Z,19.64
2019-05-18T21:37:37.701Z,19.61
2019-05-18T21:40:04.292Z,19.52
2019-05-18T21:42:30.924Z,19.32
2019-05-18T21:44:59.854Z,19.30
2019-05-18T21:47:26.726Z,19.17
2019-05-18T21:49:53.320Z,19.10
2019-05-18T21:52:22.044Z,19.23
2019-05-18T21:54:48.633Z,19.28
2019-05-18T21:57:15.231Z,19.26
2019-05-18T22:02:19.476Z,19.19
2019-05-18T22:04:46.194Z,19.05
2019-05-18T22:07:13.062Z,18.98
2019-05-18T22:09:41.589Z,19.03
2019-05-18T22:12:08.171Z,18.72
2019-05-18T22:14:34.763Z,18.65
2019-05-18T22:17:05.013Z,18.60
2019-05-18T22:19:31.609Z,18.41
2019-05-18T22:21:58.776Z,18.26
2019-05-18T22:24:27.206Z,18.35
2019-05-18T22:26:54.811Z,18.41
2019-05-18T22:29:21.403Z,18.50
2019-05-18T22:34:22.102Z,18.49
2019-05-18T22:36:48.711Z,18.17
2019-05-18T22:39:15.306Z,18.15
2019-05-18T22:41:46.808Z,18.17
2019-05-18T22:44:13.697Z,18.21
2019-05-18T22:46:40.274Z,18.18
2019-05-18T22:49:08.949Z,18.32
2019-05-18T22:51:35.822Z,18.34
2019-05-18T22:54:02.500Z,18.32
2019-05-18T22:56:32.145Z,18.20
2019-05-18T22:58:58.742Z,18.14
2019-05-18T23:01:25.446Z,18.09
2019-05-18T23:03:54.212Z,18.06
2019-05-18T23:06:21.088Z,17.85
2019-05-18T23:08:47.677Z,17.86
2019-05-18T23:11:17.049Z,17.80
2019-05-18T23:13:43.916Z,17.91
2019-05-18T23:16:10.590Z,17.81
2019-05-18T23:18:39.679Z,17.82
2019-05-18T23:21:06.278Z,17.85
2019-05-18T23:23:32.855Z,17.89
2019-05-18T23:26:02.419Z,17.71
2019-05-18T23:28:29.318Z,17.59
2019-05-18T23:30:56.188Z,17.60
2019-05-18T23:33:24.837Z,17.57
2019-05-18T23:35:51.459Z,17.51
2019-05-18T23:38:18.075Z,17.47
2019-05-18T23:40:47.345Z,17.52
2019-05-18T23:43:13.933Z,17.60
2019-05-18T23:45:40.531Z,17.69
2019-05-18T23:48:10.911Z,17.78
2019-05-18T23:50:37.555Z,17.76
2019-05-18T23:53:04.435Z,17.73
2019-05-18T23:55:33.660Z,17.66
2019-05-18T23:58:05.294Z,17.64
